Time;durP1;ratioP1;P1;durP2;ratioP2;P2;SDS_P1;SDS_P2;PMS_P1;PMS_P2;Temp;Humidity;BMP_temperature;BMP_pressure;BME280_temperature;BME280_humidity;BME280_pressure;Samples;Min_cycle;Max_cycle;Signal;HPM_P1;HPM_P2
2022/01/18 00:01:46;;;;;;;;;;;;;;;2.45;69.12;103717.34;5092204;28;19927;-78
2022/01/18 00:04:11;;;;;;;;;;;;;;;2.45;69.03;103714.75;5095579;28;19981;-80
2022/01/18 00:06:39;;;;;;;;;;;;;;;2.41;68.96;103714.22;5078689;28;20000;-80
2022/01/18 00:09:05;;;;;;;;;;;;;;;2.36;68.98;103716.28;5074854;28;19920;-82
2022/01/18 00:11:38;;;;;;;;;;;;;;;2.35;68.97;103724.88;5075033;28;19950;-80
2022/01/18 00:14:12;;;;;;;;;;;;;;;2.37;68.84;103720.75;5074836;28;19959;-79
2022/01/18 00:16:49;;;;;;;;;;;;;;;2.57;68.56;103719.53;5075872;28;19920;-81
2022/01/18 00:19:15;;;;;;;;;;;;;;;2.71;68.22;103723.69;5075090;28;20003;-82
2022/01/18 00:22:05;;;;;;;;;;;;;;;2.61;68.01;103727.84;5089254;28;19966;-81
2022/01/18 00:24:30;;;;;;;;;;;;;;;2.60;67.81;103728.59;5093858;28;19927;-81
2022/01/18 00:26:56;;;;;;;;;;;;;;;2.69;67.69;103723.53;5079437;28;19928;-79
2022/01/18 00:29:24;;;;;;;;;;;;;;;2.75;67.53;103728.47;5074274;28;19925;-79
2022/01/18 00:32:02;;;;;;;;;;;;;;;2.67;67.41;103730.22;5080426;28;19921;-81
2022/01/18 00:34:34;;;;;;;;;;;;;;;2.70;67.30;103735.75;5075018;28;20010;-80
2022/01/18 00:37:22;;;;;;;;;;;;;;;2.65;67.20;103734.31;5091855;28;19958;-81
2022/01/18 00:39:45;;;;;;;;;;;;;;;2.55;67.15;103739.22;5082678;28;19916;-82
2022/01/18 00:42:15;;;;;;;;;;;;;;;2.49;67.11;103744.66;5065847;28;19975;-82
2022/01/18 00:44:40;;;;;;;;;;;;;;;2.56;67.02;103735.88;5068114;28;19920;-82
2022/01/18 00:47:06;;;;;;;;;;;;;;;2.77;66.86;103746.13;5074569;28;19929;-80
2022/01/18 00:49:32;;;;;;;;;;;;;;;2.79;66.73;103741.09;5082243;28;20386;-81
2022/01/18 00:51:59;;;;;;;;;;;;;;;2.75;66.67;103737.25;5074364;28;19920;-82
2022/01/18 00:54:32;;;;;;;;;;;;;;;2.75;66.58;103742.44;5077845;28;19928;-80
2022/01/18 00:56:58;;;;;;;;;;;;;;;2.82;66.46;103731.97;5074568;28;19947;-81
2022/01/18 00:59:23;;;;;;;;;;;;;;;2.92;66.35;103735.59;5080251;28;20435;-81
2022/01/18 01:01:49;;;;;;;;;;;;;;;2.87;66.27;103725.63;5085296;28;19920;-80
2022/01/18 01:04:14;;;;;;;;;;;;;;;2.83;66.24;103723.41;5094311;28;19920;-80
2022/01/18 01:06:39;;;;;;;;;;;;;;;2.71;66.23;103727.22;5095153;28;19928;-80
2022/01/18 01:09:06;;;;;;;;;;;;;;;2.64;66.20;103729.84;5091836;28;19920;-80
2022/01/18 01:11:36;;;;;;;;;;;;;;;2.54;66.19;103734.78;5073540;28;19920;-79
2022/01/18 01:14:15;;;;;;;;;;;;;;;2.49;66.20;103731.66;5077530;28;19920;-79
2022/01/18 01:16:56;;;;;;;;;;;;;;;2.38;66.20;103737.28;5092474;28;19920;-81
2022/01/18 01:35:50;;;;;;;;;;;;;;;2.26;66.00;103744.59;5074288;28;19920;-83
2022/01/18 01:46:17;;;;;;;;;;;;;;;1.96;66.01;103741.19;5094521;28;19919;-82
2022/01/18 01:48:45;;;;;;;;;;;;;;;1.94;66.00;103732.31;5074834;28;19923;-81
2022/01/18 01:51:10;;;;;;;;;;;;;;;1.91;65.98;103739.75;5053007;28;19920;-81
2022/01/18 01:53:36;;;;;;;;;;;;;;;1.90;65.98;103739.56;5045970;28;20681;-79
2022/01/18 01:56:02;;;;;;;;;;;;;;;1.87;65.98;103745.31;5056133;28;19927;-82
2022/01/18 01:58:28;;;;;;;;;;;;;;;1.83;65.99;103736.97;5069920;28;19920;-83
2022/01/18 02:00:55;;;;;;;;;;;;;;;1.81;66.00;103742.00;5062796;28;19950;-82
2022/01/18 02:03:29;;;;;;;;;;;;;;;1.76;65.99;103744.06;5055696;28;20007;-80
2022/01/18 02:05:54;;;;;;;;;;;;;;;1.69;65.99;103749.25;5064461;28;19920;-82
2022/01/18 02:08:20;;;;;;;;;;;;;;;1.63;66.00;103740.75;5061087;28;20357;-83
2022/01/18 02:10:45;;;;;;;;;;;;;;;1.56;66.03;103744.28;5054218;28;19955;-83
2022/01/18 02:13:12;;;;;;;;;;;;;;;1.56;66.04;103743.38;5056973;28;19921;-81
2022/01/18 02:15:42;;;;;;;;;;;;;;;1.47;66.05;103739.69;5071151;28;20388;-82
2022/01/18 02:23:37;;;;;;;;;;;;;;;1.33;66.09;103738.03;5084012;28;20284;-83
2022/01/18 02:26:02;;;;;;;;;;;;;;;1.29;66.12;103741.94;5060331;28;19924;-80
2022/01/18 02:28:27;;;;;;;;;;;;;;;1.29;66.08;103744.53;5064925;28;20386;-80
2022/01/18 02:30:53;;;;;;;;;;;;;;;1.29;66.07;103735.81;5089283;28;19924;-82
2022/01/18 02:33:23;;;;;;;;;;;;;;;1.28;66.05;103739.16;5083639;28;20015;-82
2022/01/18 02:35:51;;;;;;;;;;;;;;;1.39;65.99;103733.56;5076634;28;20148;-80
2022/01/18 02:38:16;;;;;;;;;;;;;;;1.31;65.96;103735.25;5092742;28;19924;-78
2022/01/18 02:40:41;;;;;;;;;;;;;;;1.27;65.97;103733.03;5092617;28;19990;-82
2022/01/18 02:45:53;;;;;;;;;;;;;;;1.25;65.96;103737.13;5090825;28;19928;-83
2022/01/18 02:48:18;;;;;;;;;;;;;;;1.23;65.96;103739.53;5087977;28;19928;-83
2022/01/18 02:50:44;;;;;;;;;;;;;;;1.24;65.94;103743.03;5082336;28;19920;-81
2022/01/18 02:53:10;;;;;;;;;;;;;;;1.24;65.94;103745.63;5083880;28;19927;-82
2022/01/18 02:55:35;;;;;;;;;;;;;;;1.24;65.93;103744.00;5096423;28;19924;-83
2022/01/18 02:58:09;;;;;;;;;;;;;;;1.20;65.92;103735.66;5077458;28;19951;-81
2022/01/18 03:03:10;;;;;;;;;;;;;;;1.16;65.95;103736.00;5076589;28;19932;-81
2022/01/18 03:03:29;;;;;;;;;;;;;;;1.18;65.93;103734.53;5077897;28;19921;-80
2022/01/18 03:05:55;;;;;;;;;;;;;;;1.17;65.94;103733.59;5074937;28;20016;-83
2022/01/18 03:08:21;;;;;;;;;;;;;;;1.16;65.96;103730.81;5075874;28;20250;-81
2022/01/18 03:10:46;;;;;;;;;;;;;;;1.05;66.00;103730.44;5075641;28;19921;-80
2022/01/18 03:13:18;;;;;;;;;;;;;;;1.03;66.01;103723.25;5081042;28;19991;-81
2022/01/18 03:15:43;;;;;;;;;;;;;;;1.04;66.03;103739.00;5078683;28;20007;-79
2022/01/18 03:18:08;;;;;;;;;;;;;;;1.04;66.04;103744.19;5085185;28;19951;-79
2022/01/18 03:20:34;;;;;;;;;;;;;;;1.11;65.99;103742.34;5096592;28;19928;-81
2022/01/18 03:23:00;;;;;;;;;;;;;;;1.17;65.97;103750.84;5090528;28;19920;-82
2022/01/18 03:28:05;;;;;;;;;;;;;;;1.27;65.94;103752.88;5090118;28;19958;-80
2022/01/18 03:30:34;;;;;;;;;;;;;;;1.27;65.92;103756.38;5095476;28;19969;-83
2022/01/18 03:33:00;;;;;;;;;;;;;;;1.31;65.91;103748.25;5095528;28;19927;-82
2022/01/18 03:35:25;;;;;;;;;;;;;;;1.36;65.92;103747.09;5095792;28;19920;-81
2022/01/18 03:37:50;;;;;;;;;;;;;;;1.38;65.90;103753.44;5085681;28;20015;-83
2022/01/18 03:40:16;;;;;;;;;;;;;;;1.38;65.90;103748.25;5092897;28;19916;-82
2022/01/18 03:42:43;;;;;;;;;;;;;;;1.41;65.90;103756.41;5082248;28;19921;-82
2022/01/18 03:45:13;;;;;;;;;;;;;;;1.39;65.89;103750.06;5075709;28;20435;-82
2022/01/18 03:47:39;;;;;;;;;;;;;;;1.36;65.90;103754.91;5092473;28;20313;-81
2022/01/18 03:50:05;;;;;;;;;;;;;;;1.36;65.91;103754.91;5091094;28;19927;-80
2022/01/18 03:52:30;;;;;;;;;;;;;;;1.32;65.93;103756.94;5094702;28;20382;-80
2022/01/18 03:54:56;;;;;;;;;;;;;;;1.27;65.95;103753.78;5095953;28;19920;-82
2022/01/18 03:57:21;;;;;;;;;;;;;;;1.27;65.95;103755.47;5093426;28;19943;-82
2022/01/18 03:59:47;;;;;;;;;;;;;;;1.28;65.92;103759.94;5094666;28;19923;-82
2022/01/18 04:02:14;;;;;;;;;;;;;;;1.27;65.91;103761.59;5089051;28;19952;-80
2022/01/18 04:04:40;;;;;;;;;;;;;;;1.31;65.86;103762.91;5095250;28;19947;-79
2022/01/18 04:07:06;;;;;;;;;;;;;;;1.34;65.84;103766.78;5094920;28;20356;-82
2022/01/18 04:09:32;;;;;;;;;;;;;;;1.28;65.83;103762.53;5089965;28;19927;-80
2022/01/18 04:11:57;;;;;;;;;;;;;;;1.31;65.81;103779.41;5095762;28;19920;-80
2022/01/18 04:14:24;;;;;;;;;;;;;;;1.31;65.83;103776.81;5054517;28;20372;-80
2022/01/18 04:27:53;;;;;;;;;;;;;;;1.50;65.69;103786.81;5090246;28;20288;-80
2022/01/18 04:30:18;;;;;;;;;;;;;;;1.51;65.68;103796.41;5086906;28;19977;-80
2022/01/18 04:32:45;;;;;;;;;;;;;;;1.52;65.68;103793.09;5082404;28;19956;-79
2022/01/18 04:35:11;;;;;;;;;;;;;;;1.54;65.68;103787.34;5074224;28;19917;-79
2022/01/18 04:37:36;;;;;;;;;;;;;;;1.54;65.68;103787.34;5074083;28;19930;-80
2022/01/18 04:40:10;;;;;;;;;;;;;;;1.55;65.69;103789.19;5074675;28;19921;-80
2022/01/18 04:50:46;;;;;;;;;;;;;;;1.46;65.74;103781.97;5075592;28;19928;-80
2022/01/18 04:53:15;;;;;;;;;;;;;;;1.45;65.77;103793.13;5077159;28;19920;-79
2022/01/18 04:55:40;;;;;;;;;;;;;;;1.43;65.78;103783.47;5094656;28;20310;-79
2022/01/18 04:58:06;;;;;;;;;;;;;;;1.40;65.78;103790.88;5093855;28;19920;-78
2022/01/18 05:00:31;;;;;;;;;;;;;;;1.43;65.78;103793.84;5080230;28;19923;-81
2022/01/18 05:02:59;;;;;;;;;;;;;;;1.46;65.79;103797.56;5074919;28;19966;-79
2022/01/18 05:05:28;;;;;;;;;;;;;;;1.35;65.82;103783.28;5058082;28;20019;-80
2022/01/18 05:07:59;;;;;;;;;;;;;;;1.38;65.83;103791.44;5073635;28;20007;-79
2022/01/18 05:10:27;;;;;;;;;;;;;;;1.42;65.84;103794.59;5073248;28;19932;-78
2022/01/18 05:12:56;;;;;;;;;;;;;;;1.45;65.83;103796.63;5073822;28;20273;-80
2022/01/18 05:21:08;;;;;;;;;;;;;;;1.46;65.85;103797.56;5072889;28;19932;-82
2022/01/18 05:23:36;;;;;;;;;;;;;;;1.41;65.87;103787.56;5073314;28;19925;-81
2022/01/18 05:26:03;;;;;;;;;;;;;;;1.46;65.85;103788.13;5057156;28;19925;-79
2022/01/18 05:28:29;;;;;;;;;;;;;;;1.51;65.86;103797.38;5073222;28;19920;-81
2022/01/18 05:30:55;;;;;;;;;;;;;;;1.54;65.85;103796.78;5053097;28;20483;-81
2022/01/18 05:33:25;;;;;;;;;;;;;;;1.55;65.84;103785.66;5040158;28;19925;-81
2022/01/18 05:35:50;;;;;;;;;;;;;;;1.55;65.85;103789.19;5067528;28;19920;-79
2022/01/18 05:38:16;;;;;;;;;;;;;;;1.51;65.85;103789.59;5056023;28;19935;-80
2022/01/18 05:40:41;;;;;;;;;;;;;;;1.45;65.87;103787.94;5072895;28;19921;-80
2022/01/18 05:43:30;;;;;;;;;;;;;;;1.50;65.88;103795.50;5073068;28;20462;-79
2022/01/18 05:45:55;;;;;;;;;;;;;;;1.48;65.89;103797.00;5073039;28;19921;-81
2022/01/18 05:48:35;;;;;;;;;;;;;;;1.43;65.91;103798.13;5052242;28;19932;-79
2022/01/18 05:51:00;;;;;;;;;;;;;;;1.45;65.89;103803.50;5069250;28;19927;-79
2022/01/18 05:53:30;;;;;;;;;;;;;;;1.56;65.84;103804.03;5071980;28;19955;-80
2022/01/18 05:56:18;;;;;;;;;;;;;;;1.58;65.81;103804.22;5074321;28;19925;-79
2022/01/18 05:58:45;;;;;;;;;;;;;;;1.63;65.76;103799.56;5075925;28;19924;-79
2022/01/18 06:01:13;;;;;;;;;;;;;;;1.64;65.75;103791.97;5072830;28;20360;-80
2022/01/18 06:04:07;;;;;;;;;;;;;;;1.60;65.77;103789.72;5073905;28;19927;-79
2022/01/18 06:06:52;;;;;;;;;;;;;;;1.55;65.77;103789.19;5059581;28;19948;-79
2022/01/18 06:09:19;;;;;;;;;;;;;;;1.56;65.76;103787.53;5072560;28;19970;-80
2022/01/18 06:11:44;;;;;;;;;;;;;;;1.53;65.77;103780.28;5072298;28;19924;-81
2022/01/18 06:14:09;;;;;;;;;;;;;;;1.48;65.78;103789.22;5072810;28;19920;-78
2022/01/18 06:16:35;;;;;;;;;;;;;;;1.47;65.78;103794.22;5072683;28;20311;-80
2022/01/18 06:19:00;;;;;;;;;;;;;;;1.36;65.80;103786.06;5072382;28;20330;-79
2022/01/18 06:21:25;;;;;;;;;;;;;;;1.29;65.82;103787.72;5072718;28;19993;-80
2022/01/18 06:23:52;;;;;;;;;;;;;;;1.33;65.79;103790.88;5075923;28;19920;-79
2022/01/18 06:26:17;;;;;;;;;;;;;;;1.32;65.79;103783.84;5076058;28;20041;-79
2022/01/18 06:28:42;;;;;;;;;;;;;;;1.33;65.77;103792.56;5076590;28;20244;-78
2022/01/18 06:31:08;;;;;;;;;;;;;;;1.31;65.78;103800.16;5079667;28;19920;-77
2022/01/18 06:33:33;;;;;;;;;;;;;;;1.33;65.76;103800.34;5046699;28;19925;-78
2022/01/18 06:36:00;;;;;;;;;;;;;;;1.28;65.76;103802.41;5039990;28;19974;-79
2022/01/18 06:38:47;;;;;;;;;;;;;;;1.24;65.78;103810.53;5039728;28;19921;-79
2022/01/18 06:41:48;;;;;;;;;;;;;;;1.24;65.76;103802.75;5066171;28;19921;-78
2022/01/18 06:44:39;;;;;;;;;;;;;;;1.24;65.76;103806.31;5060263;28;19921;-79
2022/01/18 06:47:05;;;;;;;;;;;;;;;1.23;65.76;103803.53;5056990;28;19921;-78
2022/01/18 06:50:05;;;;;;;;;;;;;;;1.14;65.79;103800.72;5058194;28;19917;-79
2022/01/18 06:52:51;;;;;;;;;;;;;;;1.19;65.79;103803.88;5042100;28;19921;-77
2022/01/18 06:55:36;;;;;;;;;;;;;;;1.26;65.75;103793.50;5046172;28;20013;-78
2022/01/18 06:58:02;;;;;;;;;;;;;;;1.31;65.74;103797.56;5059495;28;19962;-80
2022/01/18 07:00:30;;;;;;;;;;;;;;;1.33;65.72;103796.06;5075732;28;19924;-78
2022/01/18 07:03:03;;;;;;;;;;;;;;;1.28;65.72;103799.78;5058276;28;19968;-79
2022/01/18 07:05:36;;;;;;;;;;;;;;;1.35;65.70;103802.41;5057760;28;20280;-77
2022/01/18 07:08:22;;;;;;;;;;;;;;;1.42;65.67;103796.25;5065904;28;19951;-76
2022/01/18 07:11:11;;;;;;;;;;;;;;;1.42;65.68;103802.38;5080155;28;19955;-78
2022/01/18 07:14:08;;;;;;;;;;;;;;;1.52;65.64;103803.47;5073239;28;19924;-78
2022/01/18 07:16:36;;;;;;;;;;;;;;;1.55;65.63;103803.84;5072437;28;19920;-78
2022/01/18 07:19:46;;;;;;;;;;;;;;;1.56;65.61;103806.63;5067401;28;19917;-77
2022/01/18 07:22:52;;;;;;;;;;;;;;;1.61;65.60;103804.59;5087281;28;19927;-78
2022/01/18 07:25:19;;;;;;;;;;;;;;;1.58;65.59;103804.22;5079989;28;19920;-76
2022/01/18 07:27:48;;;;;;;;;;;;;;;1.66;65.56;103811.25;5071718;28;20249;-78
2022/01/18 07:30:14;;;;;;;;;;;;;;;1.60;65.56;103811.47;5050538;28;19951;-80
2022/01/18 07:32:42;;;;;;;;;;;;;;;1.67;65.54;103817.38;5056665;28;20372;-78
2022/01/18 07:35:09;;;;;;;;;;;;;;;1.55;65.54;103814.25;5095799;28;19916;-79
2022/01/18 07:37:34;;;;;;;;;;;;;;;1.55;65.54;103815.16;5077111;28;20011;-80
2022/01/18 07:39:59;;;;;;;;;;;;;;;1.65;65.51;103821.44;5078022;28;19928;-78
2022/01/18 07:42:26;;;;;;;;;;;;;;;1.66;65.50;103824.22;5095718;28;19920;-78
2022/01/18 07:44:51;;;;;;;;;;;;;;;1.69;65.48;103828.88;5076313;28;19928;-81
2022/01/18 07:47:29;;;;;;;;;;;;;;;1.71;65.47;103828.34;5079688;28;19942;-78
2022/01/18 07:49:55;;;;;;;;;;;;;;;1.76;65.43;103832.41;5096222;28;19977;-81
2022/01/18 07:52:22;;;;;;;;;;;;;;;1.71;65.43;103828.34;5057799;28;20011;-78
2022/01/18 07:54:47;;;;;;;;;;;;;;;1.76;65.42;103837.59;5050693;28;20366;-80
2022/01/18 07:57:20;;;;;;;;;;;;;;;1.81;65.40;103834.63;5094920;28;19924;-80
2022/01/18 08:00:29;;;;;;;;;;;;;;;1.82;65.39;103846.84;5095038;28;20328;-83
2022/01/18 08:02:54;;;;;;;;;;;;;;;1.82;65.37;103837.41;5067333;28;20425;-79
2022/01/18 08:05:21;;;;;;;;;;;;;;;1.84;65.35;103838.50;5072956;28;19924;-80
2022/01/18 08:07:46;;;;;;;;;;;;;;;1.90;65.33;103835.72;5058625;28;19924;-81
2022/01/18 08:10:13;;;;;;;;;;;;;;;1.98;65.29;103838.47;5087282;28;19927;-80
2022/01/18 08:12:46;;;;;;;;;;;;;;;1.96;65.26;103834.78;5080635;28;19925;-80
2022/01/18 08:15:20;;;;;;;;;;;;;;;1.94;65.27;103833.66;5095915;28;19959;-80
2022/01/18 08:17:48;;;;;;;;;;;;;;;1.98;65.23;103830.66;5061731;28;19931;-81
2022/01/18 08:20:14;;;;;;;;;;;;;;;2.01;65.25;103826.59;5077591;28;19920;-80
2022/01/18 08:22:41;;;;;;;;;;;;;;;2.03;65.23;103828.63;5077325;28;19935;-83
2022/01/18 08:25:09;;;;;;;;;;;;;;;2.04;65.23;103822.69;5078192;28;19924;-82
2022/01/18 08:27:54;;;;;;;;;;;;;;;2.04;65.23;103830.47;5075782;28;19963;-83
2022/01/18 08:30:21;;;;;;;;;;;;;;;2.07;65.22;103825.66;5075318;28;19932;-83
2022/01/18 08:32:49;;;;;;;;;;;;;;;2.10;65.23;103827.69;5057954;28;19921;-81
2022/01/18 08:35:19;;;;;;;;;;;;;;;2.14;65.21;103828.22;5082007;28;19920;-80
2022/01/18 08:37:46;;;;;;;;;;;;;;;2.17;65.19;103840.66;5077737;28;20355;-82
2022/01/18 08:40:11;;;;;;;;;;;;;;;2.25;65.18;103836.34;5067990;28;19920;-82
2022/01/18 08:42:43;;;;;;;;;;;;;;;2.21;65.19;103836.75;5095204;28;19921;-80
2022/01/18 08:45:12;;;;;;;;;;;;;;;2.29;65.17;103839.50;5077267;28;19947;-79
2022/01/18 08:47:37;;;;;;;;;;;;;;;2.36;65.17;103846.31;5076614;28;20340;-83
2022/01/18 08:50:03;;;;;;;;;;;;;;;2.43;65.14;103843.69;5077706;28;20050;-82
2022/01/18 08:52:52;;;;;;;;;;;;;;;2.34;65.15;103843.53;5076274;28;19923;-81
2022/01/18 08:55:20;;;;;;;;;;;;;;;2.38;65.15;103843.91;5077585;28;19920;-82
2022/01/18 08:57:46;;;;;;;;;;;;;;;2.44;65.14;103853.38;5077522;28;20470;-82
2022/01/18 09:00:14;;;;;;;;;;;;;;;2.58;65.12;103848.84;5077236;28;19919;-81
2022/01/18 09:02:45;;;;;;;;;;;;;;;2.57;65.13;103844.41;5106336;28;19920;-83
2022/01/18 09:05:11;;;;;;;;;;;;;;;2.63;65.14;103847.72;5076438;28;19931;-81
2022/01/18 09:07:39;;;;;;;;;;;;;;;2.66;65.14;103859.41;5078062;28;19950;-81
2022/01/18 09:10:09;;;;;;;;;;;;;;;2.77;65.13;103855.44;5091009;28;20368;-81
2022/01/18 09:12:40;;;;;;;;;;;;;;;2.81;65.13;103854.09;5057235;28;19931;-82
2022/01/18 09:15:07;;;;;;;;;;;;;;;2.83;65.15;103850.03;5096917;28;19920;-78
2022/01/18 09:17:34;;;;;;;;;;;;;;;2.89;65.17;103850.72;5096003;28;19920;-81
2022/01/18 09:20:06;;;;;;;;;;;;;;;3.02;65.15;103846.16;5096288;28;19923;-78
2022/01/18 09:22:35;;;;;;;;;;;;;;;3.02;65.18;103851.38;5073595;28;19964;-78
2022/01/18 09:25:01;;;;;;;;;;;;;;;3.09;65.19;103854.69;5073288;28;19920;-80
2022/01/18 09:27:27;;;;;;;;;;;;;;;3.15;65.19;103857.97;5073315;28;19928;-79
2022/01/18 09:29:53;;;;;;;;;;;;;;;3.23;65.18;103854.56;5056612;28;19925;-77
2022/01/18 09:32:18;;;;;;;;;;;;;;;3.26;65.21;103856.59;5076301;28;19928;-79
2022/01/18 09:34:44;;;;;;;;;;;;;;;3.32;65.22;103858.22;5077734;28;19920;-81
2022/01/18 09:37:09;;;;;;;;;;;;;;;3.36;65.22;103854.31;5085519;28;19920;-80
2022/01/18 09:39:35;;;;;;;;;;;;;;;3.47;65.23;103848.63;5061635;28;20321;-78
2022/01/18 09:42:04;;;;;;;;;;;;;;;3.48;65.25;103850.47;5058974;28;19958;-84
2022/01/18 09:44:30;;;;;;;;;;;;;;;3.53;65.23;103849.31;5077036;28;19927;-78
2022/01/18 09:46:57;;;;;;;;;;;;;;;3.57;65.26;103861.94;5060672;28;19985;-78
2022/01/18 09:49:24;;;;;;;;;;;;;;;3.70;65.25;103859.03;5074111;28;19923;-78
2022/01/18 09:51:56;;;;;;;;;;;;;;;3.67;65.26;103866.50;5060835;28;19963;-79
2022/01/18 09:54:27;;;;;;;;;;;;;;;3.77;65.27;103860.63;5055411;28;19924;-77
2022/01/18 09:56:57;;;;;;;;;;;;;;;3.83;65.29;103866.53;5093701;28;19947;-81
2022/01/18 09:59:22;;;;;;;;;;;;;;;3.78;65.32;103872.91;5076127;28;20068;-82
2022/01/18 10:01:57;;;;;;;;;;;;;;;3.77;65.33;103874.56;5075639;28;20371;-82
2022/01/18 10:04:26;;;;;;;;;;;;;;;3.78;65.35;103870.31;5058692;28;19924;-82
2022/01/18 10:06:53;;;;;;;;;;;;;;;3.70;65.40;103868.53;5076328;28;19928;-83
2022/01/18 10:09:22;;;;;;;;;;;;;;;3.81;65.37;103862.81;5059321;28;19970;-78
2022/01/18 10:12:01;;;;;;;;;;;;;;;3.74;65.39;103866.44;5075693;28;19920;-79
2022/01/18 10:14:34;;;;;;;;;;;;;;;3.78;65.37;103868.63;5075888;28;19924;-83
2022/01/18 10:17:06;;;;;;;;;;;;;;;3.87;65.36;103865.16;5077679;28;19924;-82
2022/01/18 10:19:52;;;;;;;;;;;;;;;3.92;65.35;103857.13;5078847;28;19924;-80
2022/01/18 10:22:20;;;;;;;;;;;;;;;3.89;65.36;103851.56;5070957;28;19920;-78
2022/01/18 10:24:47;;;;;;;;;;;;;;;4.04;65.36;103857.56;5075556;28;20585;-79
2022/01/18 10:27:13;;;;;;;;;;;;;;;4.05;65.38;103853.25;5078080;28;19920;-81
2022/01/18 10:30:02;;;;;;;;;;;;;;;4.10;65.38;103850.41;5075246;28;19920;-77
2022/01/18 10:32:36;;;;;;;;;;;;;;;4.11;65.39;103849.63;5087505;28;19955;-81
2022/01/18 10:35:07;;;;;;;;;;;;;;;4.23;65.38;103855.28;5094400;28;19978;-80
2022/01/18 10:37:35;;;;;;;;;;;;;;;4.22;65.41;103857.72;5075203;28;19927;-77
2022/01/18 10:40:07;;;;;;;;;;;;;;;4.20;65.44;103854.97;5042252;28;19925;-81
2022/01/18 10:43:06;;;;;;;;;;;;;;;4.31;65.41;103858.75;5060632;28;19929;-81
2022/01/18 10:45:52;;;;;;;;;;;;;;;4.19;65.46;103853.09;5068274;28;19920;-79
2022/01/18 10:48:20;;;;;;;;;;;;;;;4.28;65.46;103855.78;5072255;28;20369;-81
2022/01/18 10:51:26;;;;;;;;;;;;;;;4.29;65.46;103855.06;5073295;28;19921;-80
2022/01/18 10:54:02;;;;;;;;;;;;;;;4.29;65.47;103855.97;5054250;28;19925;-79
2022/01/18 10:56:39;;;;;;;;;;;;;;;4.24;65.50;103864.03;5070533;28;20016;-82
2022/01/18 10:59:05;;;;;;;;;;;;;;;4.29;65.51;103861.19;5061327;28;19928;-79
2022/01/18 11:01:31;;;;;;;;;;;;;;;4.38;65.52;103860.31;5067366;28;19924;-81
2022/01/18 11:04:13;;;;;;;;;;;;;;;4.29;65.57;103861.19;5072452;28;19934;-83
2022/01/18 11:07:04;;;;;;;;;;;;;;;4.43;65.62;103854.88;5059444;28;19955;-78
2022/01/18 11:09:50;;;;;;;;;;;;;;;4.45;65.61;103852.44;5069208;28;20358;-79
2022/01/18 11:12:37;;;;;;;;;;;;;;;4.56;65.62;103844.06;5067727;28;19963;-78
2022/01/18 11:15:28;;;;;;;;;;;;;;;4.56;65.66;103841.47;5057532;28;20510;-79
2022/01/18 11:18:01;;;;;;;;;;;;;;;4.70;65.63;103835.13;5074525;28;20023;-80
2022/01/18 11:20:45;;;;;;;;;;;;;;;4.59;65.73;103833.03;5073924;28;20279;-79
2022/01/18 11:23:25;;;;;;;;;;;;;;;4.58;65.78;103826.88;5070675;28;19925;-78
2022/01/18 11:26:19;;;;;;;;;;;;;;;4.60;65.84;103835.81;5082192;28;19920;-81
2022/01/18 11:28:55;;;;;;;;;;;;;;;4.64;65.88;103837.06;5072158;28;19959;-79
2022/01/18 11:31:20;;;;;;;;;;;;;;;4.81;65.85;103831.06;5059481;28;19920;-80
2022/01/18 11:33:52;;;;;;;;;;;;;;;4.84;65.90;103834.91;5055519;28;19947;-80
2022/01/18 11:36:23;;;;;;;;;;;;;;;4.76;66.03;103845.31;5042870;28;19936;-79
2022/01/18 11:39:11;;;;;;;;;;;;;;;4.82;66.17;103840.75;5058845;28;19928;-79
2022/01/18 11:41:38;;;;;;;;;;;;;;;4.78;66.32;103835.94;5060491;28;20330;-80
2022/01/18 11:44:16;;;;;;;;;;;;;;;4.84;66.42;103827.06;5057032;28;20011;-78
2022/01/18 11:46:50;;;;;;;;;;;;;;;4.86;66.54;103832.47;5075804;28;19970;-79
2022/01/18 11:49:23;;;;;;;;;;;;;;;4.79;66.74;103836.09;5068572;28;20007;-77
2022/01/18 11:51:49;;;;;;;;;;;;;;;4.74;67.00;103832.09;5059552;28;20383;-79
2022/01/18 11:57:27;;;;;;;;;;;;;;;4.75;67.48;103819.94;5072394;28;20026;-78
2022/01/18 12:00:08;;;;;;;;;;;;;;;4.78;67.72;103815.97;5074109;28;19924;-77
2022/01/18 12:02:56;;;;;;;;;;;;;;;4.76;68.14;103816.59;5075070;28;19931;-79
2022/01/18 12:05:25;;;;;;;;;;;;;;;4.76;68.59;103817.50;5065751;28;19920;-79
2022/01/18 12:07:59;;;;;;;;;;;;;;;4.72;69.25;103824.84;5074371;28;20011;-78
2022/01/18 12:10:27;;;;;;;;;;;;;;;4.77;69.90;103813.19;5085893;28;20003;-78
2022/01/18 12:12:59;;;;;;;;;;;;;;;4.85;70.40;103814.97;5078008;28;19947;-77
2022/01/18 12:15:26;;;;;;;;;;;;;;;4.87;71.28;103815.13;5047213;28;20036;-78
2022/01/18 12:17:54;;;;;;;;;;;;;;;4.96;72.78;103811.78;5057454;28;19982;-78
2022/01/18 12:20:35;;;;;;;;;;;;;;;4.95;74.74;103806.41;5074461;28;19943;-78
2022/01/18 12:23:31;;;;;;;;;;;;;;;4.91;77.13;103804.22;5057332;28;19925;-78
2022/01/18 12:26:17;;;;;;;;;;;;;;;4.98;78.77;103806.72;5032770;28;19928;-77
2022/01/18 12:34:29;;;;;;;;;;;;;;;4.87;87.39;103804.69;5092755;28;20661;-77
2022/01/18 12:36:56;;;;;;;;;;;;;;;4.94;88.68;103810.72;5063961;28;19924;-78
2022/01/18 12:39:28;;;;;;;;;;;;;;;5.02;90.17;103799.38;5087780;28;20030;-77
2022/01/18 12:41:56;;;;;;;;;;;;;;;4.96;92.30;103796.13;5075496;28;19968;-78
2022/01/18 12:44:24;;;;;;;;;;;;;;;4.96;94.01;103793.50;5068968;28;20007;-77
2022/01/18 12:46:54;;;;;;;;;;;;;;;4.85;96.49;103794.06;5084068;28;20490;-77
2022/01/18 12:49:29;;;;;;;;;;;;;;;4.88;97.21;103794.41;5093982;28;19947;-80
2022/01/18 12:52:00;;;;;;;;;;;;;;;4.83;99.01;103788.69;5075883;28;20419;-77
2022/01/18 12:54:38;;;;;;;;;;;;;;;4.84;99.66;103787.00;5092397;28;19927;-76
2022/01/18 12:57:16;;;;;;;;;;;;;;;4.88;100.00;103778.72;5072153;28;19925;-78
2022/01/18 13:00:01;;;;;;;;;;;;;;;4.88;100.00;103778.72;5058112;28;19920;-77
2022/01/18 13:02:27;;;;;;;;;;;;;;;4.92;100.00;103779.97;5065583;28;19955;-77
2022/01/18 13:05:06;;;;;;;;;;;;;;;4.94;100.00;103784.59;5055660;28;19967;-77
2022/01/18 13:07:31;;;;;;;;;;;;;;;4.93;100.00;103771.38;5073950;28;20418;-80
2022/01/18 13:09:57;;;;;;;;;;;;;;;4.99;100.00;103770.34;5068693;28;19927;-78
2022/01/18 13:12:35;;;;;;;;;;;;;;;4.99;100.00;103770.34;5072789;28;19928;-78
2022/01/18 13:15:04;;;;;;;;;;;;;;;4.92;100.00;103761.69;5058892;28;19931;-80
2022/01/18 13:23:26;;;;;;;;;;;;;;;5.00;100.00;103759.13;5091879;28;19927;-78
2022/01/18 13:25:57;;;;;;;;;;;;;;;4.97;100.00;103752.63;5071550;28;19932;-77
2022/01/18 13:28:35;;;;;;;;;;;;;;;5.01;100.00;103750.50;5072549;28;19916;-76
2022/01/18 13:31:17;;;;;;;;;;;;;;;5.11;100.00;103754.09;5074484;28;19924;-77
2022/01/18 13:33:50;;;;;;;;;;;;;;;5.12;100.00;103737.66;5056065;28;19939;-77
2022/01/18 13:36:15;;;;;;;;;;;;;;;5.16;100.00;103734.63;5067567;28;20008;-76
2022/01/18 13:38:42;;;;;;;;;;;;;;;5.07;100.00;103725.81;5046852;28;20297;-80
2022/01/18 13:41:09;;;;;;;;;;;;;;;5.05;100.00;103723.06;5049997;28;19921;-78
2022/01/18 13:43:34;;;;;;;;;;;;;;;5.12;100.00;103722.00;5038374;28;19964;-77
2022/01/18 13:46:01;;;;;;;;;;;;;;;5.01;100.00;103716.56;5054965;28;19947;-78
2022/01/18 13:48:32;;;;;;;;;;;;;;;4.94;100.00;103706.25;5046976;28;19916;-79
2022/01/18 13:51:07;;;;;;;;;;;;;;;5.01;100.00;103698.28;5059826;28;19924;-77
2022/01/18 13:53:39;;;;;;;;;;;;;;;4.88;100.00;103695.19;5059214;28;19924;-78
2022/01/18 13:56:04;;;;;;;;;;;;;;;4.84;100.00;103688.69;5054694;28;19929;-78
2022/01/18 13:58:32;;;;;;;;;;;;;;;4.87;100.00;103693.31;5069276;28;19924;-79
2022/01/18 14:01:06;;;;;;;;;;;;;;;4.96;100.00;103690.75;5059659;28;19947;-79
2022/01/18 14:03:33;;;;;;;;;;;;;;;4.94;100.00;103682.75;5061416;28;19920;-79
2022/01/18 14:05:58;;;;;;;;;;;;;;;4.97;100.00;103683.06;5055095;28;19920;-78
2022/01/18 14:08:30;;;;;;;;;;;;;;;5.02;100.00;103679.25;5056422;28;19927;-80
2022/01/18 14:11:01;;;;;;;;;;;;;;;4.97;100.00;103670.03;5055497;28;19920;-78
2022/01/18 14:13:28;;;;;;;;;;;;;;;4.96;100.00;103672.47;5057184;28;20392;-79
2022/01/18 14:15:54;;;;;;;;;;;;;;;4.94;100.00;103664.47;5055323;28;20439;-80
2022/01/18 14:18:20;;;;;;;;;;;;;;;4.94;100.00;103653.09;5041765;28;19966;-79
2022/01/18 14:20:45;;;;;;;;;;;;;;;4.91;100.00;103656.31;5068145;28;19920;-80